createdAt,value
2023-04-18T00:02:20.022Z,29.50
2023-04-18T00:04:51.957Z,29.50
2023-04-18T00:07:22.260Z,29.50
2023-04-18T00:09:51.955Z,29.50
2023-04-18T00:12:22.434Z,29.50
2023-04-18T00:14:53.622Z,29.60
2023-04-18T00:17:23.856Z,29.60
2023-04-18T00:19:54.213Z,29.70
2023-04-18T00:22:24.882Z,29.70
2023-04-18T00:24:54.942Z,29.70
2023-04-18T00:27:24.979Z,29.80
2023-04-18T00:29:54.678Z,29.90
2023-04-18T00:32:24.695Z,29.90
2023-04-18T00:34:54.415Z,30.00
2023-04-18T00:37:24.465Z,30.00
2023-04-18T00:39:55.458Z,30.10
2023-04-18T00:42:29.180Z,30.20
2023-04-18T00:44:59.078Z,30.20
2023-04-18T00:47:29.226Z,30.30
2023-04-18T00:49:59.784Z,30.30
2023-04-18T00:52:30.037Z,30.40
2023-04-18T00:55:00.190Z,30.40
2023-04-18T00:57:30.051Z,30.50
2023-04-18T01:00:06.248Z,30.60
2023-04-18T01:02:37.267Z,30.60
2023-04-18T01:05:08.006Z,30.70
2023-04-18T01:07:43.032Z,30.80
2023-04-18T01:10:13.295Z,30.80
2023-04-18T01:12:44.523Z,30.90
2023-04-18T01:15:14.595Z,31.00
2023-04-18T01:17:45.046Z,31.10
2023-04-18T01:20:16.508Z,31.20
2023-04-18T01:22:46.841Z,31.20
2023-04-18T01:25:17.087Z,31.40
2023-04-18T01:27:47.233Z,31.40
2023-04-18T01:30:17.005Z,31.50
2023-04-18T01:32:47.928Z,31.50
2023-04-18T01:35:19.042Z,31.60
2023-04-18T01:37:49.056Z,31.70
2023-04-18T01:40:18.967Z,31.70
2023-04-18T01:42:49.146Z,31.80
2023-04-18T01:45:19.435Z,31.90
2023-04-18T01:47:50.618Z,32.00
2023-04-18T01:50:20.741Z,32.10
2023-04-18T01:52:50.510Z,32.10
2023-04-18T01:55:20.489Z,32.10
2023-04-18T01:57:52.281Z,32.20
2023-04-18T02:00:22.966Z,32.20
2023-04-18T02:02:52.661Z,32.30
2023-04-18T02:05:23.814Z,32.30
2023-04-18T02:07:54.308Z,32.50
2023-04-18T02:10:24.317Z,32.50
2023-04-18T02:12:54.279Z,32.50
2023-04-18T02:15:26.192Z,32.60
2023-04-18T02:17:56.842Z,32.70
2023-04-18T02:20:27.702Z,32.90
2023-04-18T02:22:57.936Z,32.90
2023-04-18T02:25:30.676Z,33.00
2023-04-18T02:28:00.819Z,32.90
2023-04-18T02:30:34.119Z,33.00
2023-04-18T02:33:05.112Z,33.10
2023-04-18T02:35:34.872Z,33.20
2023-04-18T02:38:05.407Z,33.10
2023-04-18T02:40:35.343Z,33.20
2023-04-18T02:43:05.163Z,33.40
2023-04-18T02:45:35.643Z,33.50
2023-04-18T02:48:05.934Z,33.60
2023-04-18T02:50:37.464Z,33.80
2023-04-18T02:53:07.506Z,33.90
2023-04-18T02:55:51.947Z,34.00
2023-04-18T02:58:24.868Z,34.00
2023-04-18T03:01:09.773Z,34.20
2023-04-18T03:03:59.552Z,34.30
2023-04-18T03:06:40.682Z,34.40
2023-04-18T03:09:11.334Z,34.50
2023-04-18T03:11:48.050Z,34.70
2023-04-18T03:14:20.528Z,34.60
2023-04-18T03:16:57.500Z,34.80
2023-04-18T03:19:33.608Z,34.90
2023-04-18T03:22:08.852Z,34.90
2023-04-18T03:24:45.357Z,34.90
2023-04-18T03:27:16.113Z,34.90
2023-04-18T03:29:48.132Z,35.00
2023-04-18T03:32:18.785Z,34.90
2023-04-18T03:34:48.747Z,35.20
2023-04-18T03:37:18.985Z,35.40
2023-04-18T03:39:54.165Z,35.40
2023-04-18T03:42:28.433Z,35.50
2023-04-18T03:44:58.360Z,35.40
2023-04-18T03:47:28.669Z,35.40
2023-04-18T03:50:01.023Z,35.70
2023-04-18T03:52:31.612Z,35.80
2023-04-18T03:55:02.187Z,35.90
2023-04-18T03:57:35.752Z,36.10
2023-04-18T04:00:11.986Z,36.10
2023-04-18T04:02:58.798Z,36.20
2023-04-18T04:05:29.517Z,36.30
2023-04-18T04:07:59.613Z,36.40
2023-04-18T04:10:29.660Z,36.50
2023-04-18T04:13:01.954Z,36.50
2023-04-18T04:15:34.534Z,36.60
2023-04-18T04:18:09.170Z,36.60
2023-04-18T04:20:42.216Z,36.50
2023-04-18T04:23:17.074Z,36.60
2023-04-18T04:25:49.520Z,36.70
2023-04-18T04:28:37.599Z,36.80
2023-04-18T04:31:09.828Z,37.00
2023-04-18T04:33:41.592Z,37.10
2023-04-18T04:36:18.848Z,37.20
2023-04-18T04:38:51.550Z,37.20
2023-04-18T04:41:26.080Z,37.30
2023-04-18T04:43:56.538Z,37.30
2023-04-18T04:46:32.023Z,37.30
2023-04-18T04:49:03.350Z,37.40
2023-04-18T04:51:33.591Z,37.40
2023-04-18T04:54:03.936Z,37.60
2023-04-18T04:56:34.753Z,37.40
2023-04-18T04:59:05.326Z,37.80
2023-04-18T05:01:42.608Z,37.80
2023-04-18T05:04:13.124Z,37.80
2023-04-18T05:06:43.439Z,37.80
2023-04-18T05:09:13.155Z,38.10
2023-04-18T05:11:44.004Z,38.20
2023-04-18T05:14:14.076Z,38.20
2023-04-18T05:16:44.302Z,38.40
2023-04-18T05:19:14.106Z,38.40
2023-04-18T05:21:45.033Z,38.30
2023-04-18T05:24:15.377Z,38.30
2023-04-18T05:26:45.729Z,38.50
2023-04-18T05:29:16.297Z,38.60
2023-04-18T05:31:46.106Z,38.60
2023-04-18T05:34:16.361Z,38.70
2023-04-18T05:36:46.199Z,38.60
2023-04-18T05:39:16.275Z,38.90
2023-04-18T05:41:46.036Z,38.70
2023-04-18T05:44:17.471Z,38.60
2023-04-18T05:46:48.065Z,38.90
2023-04-18T05:49:18.003Z,39.00
2023-04-18T05:51:51.223Z,38.70
2023-04-18T05:54:26.522Z,38.90
2023-04-18T05:56:58.453Z,39.10
2023-04-18T05:59:31.354Z,39.10
2023-04-18T06:02:01.354Z,39.00
2023-04-18T06:04:31.419Z,38.90
2023-04-18T06:07:01.325Z,39.20
2023-04-18T06:09:30.889Z,39.30
2023-04-18T06:12:01.806Z,39.20
2023-04-18T06:14:31.794Z,39.20
2023-04-18T06:17:01.486Z,39.50
2023-04-18T06:19:31.569Z,39.60
2023-04-18T06:22:02.842Z,39.70
2023-04-18T06:24:32.968Z,39.70
2023-04-18T06:27:03.749Z,39.80
2023-04-18T06:29:36.050Z,39.90
2023-04-18T06:32:07.625Z,39.90
2023-04-18T06:34:39.649Z,39.70
2023-04-18T06:37:10.224Z,39.60
2023-04-18T06:39:40.001Z,39.60
2023-04-18T06:42:10.166Z,39.70
2023-04-18T06:44:47.013Z,39.40
2023-04-18T06:47:17.598Z,39.70
2023-04-18T06:49:47.457Z,39.70
2023-04-18T06:52:17.446Z,39.70
2023-04-18T06:54:47.250Z,39.70
2023-04-18T06:57:17.645Z,39.80
2023-04-18T06:59:47.531Z,39.80
2023-04-18T07:02:17.710Z,40.00
2023-04-18T07:04:47.636Z,40.40
2023-04-18T07:07:17.817Z,40.50
2023-04-18T07:09:47.535Z,40.30
2023-04-18T07:12:18.240Z,40.20
2023-04-18T07:14:48.455Z,40.00
2023-04-18T07:17:19.288Z,40.40
2023-04-18T07:19:49.194Z,40.30
2023-04-18T07:22:19.325Z,40.40
2023-04-18T07:24:49.982Z,40.70
2023-04-18T07:27:20.144Z,40.30
2023-04-18T07:29:49.890Z,40.40
2023-04-18T07:32:19.954Z,40.40
2023-04-18T07:34:49.971Z,40.00
2023-04-18T07:37:20.569Z,40.30
2023-04-18T07:39:50.636Z,40.50
2023-04-18T07:42:20.568Z,40.50
2023-04-18T07:44:51.109Z,40.40
2023-04-18T07:47:22.266Z,40.30
2023-04-18T07:49:52.616Z,40.60
2023-04-18T07:52:22.492Z,40.70
2023-04-18T07:54:52.673Z,40.70
2023-04-18T07:57:25.541Z,40.60
2023-04-18T07:59:55.836Z,40.70
2023-04-18T08:02:25.819Z,40.80
2023-04-18T08:04:57.503Z,40.60
2023-04-18T08:07:27.669Z,40.60
2023-04-18T08:09:57.424Z,40.60
2023-04-18T08:12:27.725Z,40.50
2023-04-18T08:14:57.468Z,40.50
2023-04-18T08:17:27.431Z,40.70
2023-04-18T08:19:57.294Z,40.60
2023-04-18T08:22:27.347Z,40.80
2023-04-18T08:25:04.358Z,40.50
2023-04-18T08:27:35.808Z,40.60
2023-04-18T08:30:06.346Z,40.60
2023-04-18T08:32:38.743Z,40.50
2023-04-18T08:35:09.083Z,40.50
2023-04-18T08:37:38.786Z,40.20
2023-04-18T08:40:09.804Z,40.40
2023-04-18T08:42:40.096Z,40.60
2023-04-18T08:45:12.018Z,40.50
2023-04-18T08:47:43.601Z,40.60
2023-04-18T08:50:14.282Z,40.50
2023-04-18T08:52:51.043Z,40.40
2023-04-18T08:55:23.810Z,40.30
2023-04-18T08:57:57.257Z,40.40
2023-04-18T09:00:29.003Z,40.30
2023-04-18T09:02:59.345Z,40.10
2023-04-18T09:05:29.753Z,40.00
2023-04-18T09:07:59.561Z,39.90
2023-04-18T09:10:35.147Z,40.20
2023-04-18T09:13:06.241Z,40.10
2023-04-18T09:15:36.766Z,39.90
2023-04-18T09:18:12.351Z,39.90
2023-04-18T09:20:43.910Z,40.00
2023-04-18T09:23:24.810Z,39.90
2023-04-18T09:25:55.274Z,39.90
2023-04-18T09:28:35.376Z,39.60
2023-04-18T09:31:14.783Z,39.70
2023-04-18T09:33:55.904Z,39.80
2023-04-18T09:36:30.754Z,39.90
2023-04-18T09:39:00.792Z,39.90
2023-04-18T09:41:32.002Z,39.80
2023-04-18T09:44:18.937Z,39.70
2023-04-18T09:46:49.603Z,39.60
2023-04-18T09:49:20.086Z,39.60
2023-04-18T09:51:56.311Z,39.60
2023-04-18T09:54:30.551Z,39.60
2023-04-18T09:57:01.255Z,39.40
2023-04-18T09:59:56.776Z,39.50
2023-04-18T10:02:30.405Z,39.30
2023-04-18T10:05:02.345Z,39.30
2023-04-18T10:07:34.166Z,39.20
2023-04-18T10:10:04.092Z,39.20
2023-04-18T10:12:34.200Z,39.20
2023-04-18T10:15:04.638Z,39.10
2023-04-18T10:18:02.727Z,39.10
2023-04-18T10:20:36.479Z,38.90
2023-04-18T10:23:39.270Z,39.00
2023-04-18T10:26:11.207Z,39.10
2023-04-18T10:29:00.933Z,39.00
2023-04-18T10:31:40.309Z,38.90
2023-04-18T10:34:10.241Z,38.80
2023-04-18T10:37:00.521Z,38.70
2023-04-18T10:39:31.436Z,38.60
2023-04-18T10:42:01.416Z,38.50
2023-04-18T10:44:31.208Z,38.50
2023-04-18T10:47:22.461Z,38.40
2023-04-18T10:49:57.320Z,38.40
2023-04-18T10:52:29.482Z,38.30
2023-04-18T10:55:26.188Z,38.30
2023-04-18T10:58:00.329Z,38.20
2023-04-18T11:00:31.790Z,38.10
2023-04-18T11:03:02.573Z,38.00
2023-04-18T11:05:32.919Z,38.00
2023-04-18T11:08:02.616Z,37.90
2023-04-18T11:10:32.800Z,37.90
2023-04-18T11:13:06.018Z,37.80
2023-04-18T11:15:41.249Z,37.80
2023-04-18T11:18:12.230Z,37.70
2023-04-18T11:20:48.521Z,37.70
2023-04-18T11:23:22.906Z,37.60
2023-04-18T11:25:58.064Z,37.60
2023-04-18T11:28:29.978Z,37.60
2023-04-18T11:31:01.623Z,37.50
2023-04-18T11:33:32.836Z,37.50
2023-04-18T11:36:02.984Z,37.40
2023-04-18T11:38:33.178Z,37.40
2023-04-18T11:41:05.393Z,37.30
2023-04-18T11:43:35.323Z,37.20
2023-04-18T11:46:05.093Z,37.30
2023-04-18T11:48:40.873Z,37.20
2023-04-18T11:51:35.881Z,37.20
2023-04-18T11:54:06.767Z,37.20
2023-04-18T11:56:37.176Z,37.10
2023-04-18T11:59:13.605Z,37.10
2023-04-18T12:01:43.723Z,37.00
2023-04-18T12:04:14.160Z,36.90
2023-04-18T12:06:52.513Z,36.70
2023-04-18T12:09:26.458Z,36.70
2023-04-18T12:12:04.567Z,36.70
2023-04-18T12:14:37.255Z,36.70
2023-04-18T12:17:07.748Z,36.60
2023-04-18T12:19:37.708Z,36.50
2023-04-18T12:22:09.408Z,36.30
2023-04-18T12:24:39.851Z,36.40
2023-04-18T12:27:09.623Z,36.50
2023-04-18T12:29:39.585Z,36.40
2023-04-18T12:32:09.350Z,36.40
2023-04-18T12:34:39.794Z,36.40
2023-04-18T12:37:10.894Z,36.20
2023-04-18T12:39:40.913Z,36.10
2023-04-18T12:42:10.650Z,36.00
2023-04-18T12:44:40.607Z,36.00
2023-04-18T12:47:10.490Z,35.90
2023-04-18T12:49:40.571Z,35.80
2023-04-18T12:52:10.296Z,35.80
2023-04-18T12:54:40.386Z,35.80
2023-04-18T12:57:10.046Z,35.70
2023-04-18T12:59:40.000Z,35.60
2023-04-18T13:02:09.816Z,35.60
2023-04-18T13:04:39.957Z,35.70
2023-04-18T13:07:09.790Z,35.50
2023-04-18T13:09:40.360Z,35.50
2023-04-18T13:12:10.502Z,35.50
2023-04-18T13:14:40.646Z,35.40
2023-04-18T13:17:11.184Z,35.40
2023-04-18T13:19:41.269Z,35.30
2023-04-18T13:22:10.901Z,35.30
2023-04-18T13:24:40.787Z,35.20
2023-04-18T13:27:13.401Z,35.10
2023-04-18T13:29:44.611Z,35.00
2023-04-18T13:32:14.935Z,35.00
2023-04-18T13:34:50.038Z,35.00
2023-04-18T13:37:20.395Z,35.00
2023-04-18T13:39:50.284Z,35.00
2023-04-18T13:42:20.900Z,35.00
2023-04-18T13:44:51.922Z,34.80
2023-04-18T13:47:23.032Z,34.80
2023-04-18T13:49:53.429Z,34.70
2023-04-18T13:52:23.383Z,34.80
2023-04-18T13:54:53.449Z,34.70
2023-04-18T13:57:24.622Z,34.80
2023-04-18T13:59:57.381Z,34.70
2023-04-18T14:02:27.712Z,34.70
2023-04-18T14:04:59.608Z,34.60
2023-04-18T14:07:30.014Z,34.60
2023-04-18T14:09:59.769Z,34.70
2023-04-18T14:12:29.738Z,34.60
2023-04-18T14:14:59.626Z,34.70
2023-04-18T14:17:29.763Z,34.70
2023-04-18T14:19:59.595Z,34.60
2023-04-18T14:22:29.649Z,34.60
2023-04-18T14:24:59.413Z,34.60
2023-04-18T14:27:29.424Z,34.50
2023-04-18T14:29:59.156Z,34.50
2023-04-18T14:32:29.328Z,34.50
2023-04-18T14:35:00.519Z,34.40
2023-04-18T14:37:30.591Z,34.30
2023-04-18T14:40:00.288Z,34.30
2023-04-18T14:42:30.190Z,34.20
2023-04-18T14:45:00.865Z,34.10
2023-04-18T14:47:33.454Z,34.10
2023-04-18T14:50:03.838Z,34.20
2023-04-18T14:52:33.982Z,34.10
2023-04-18T14:55:04.807Z,34.10
2023-04-18T14:57:37.028Z,34.00
2023-04-18T15:00:14.298Z,34.00
2023-04-18T15:02:44.479Z,33.90
2023-04-18T15:05:15.087Z,33.80
2023-04-18T15:07:46.528Z,33.80
2023-04-18T15:10:16.792Z,33.80
2023-04-18T15:12:48.659Z,33.80
2023-04-18T15:15:20.238Z,33.80
2023-04-18T15:17:50.095Z,33.80
2023-04-18T15:20:21.266Z,33.70
2023-04-18T15:22:52.565Z,33.70
2023-04-18T15:25:22.253Z,33.70
2023-04-18T15:27:52.985Z,33.80
2023-04-18T15:30:25.793Z,33.70
2023-04-18T15:32:56.019Z,33.70
2023-04-18T15:35:26.230Z,33.70
2023-04-18T15:37:56.116Z,33.60
2023-04-18T15:40:26.181Z,33.70
2023-04-18T15:42:57.489Z,33.60
2023-04-18T15:45:27.848Z,33.50
2023-04-18T15:47:57.764Z,33.50
2023-04-18T15:50:28.293Z,33.50
2023-04-18T15:52:58.082Z,33.50
2023-04-18T15:55:28.322Z,33.50
2023-04-18T15:57:58.306Z,33.50
2023-04-18T16:00:28.336Z,33.50
2023-04-18T16:02:58.479Z,33.40
2023-04-18T16:05:28.538Z,33.40
2023-04-18T16:07:59.153Z,33.40
2023-04-18T16:10:29.176Z,33.30
2023-04-18T16:13:00.976Z,33.30
2023-04-18T16:15:33.345Z,33.30
2023-04-18T16:18:03.851Z,33.30
2023-04-18T16:20:35.853Z,33.30
2023-04-18T16:23:05.810Z,33.20
2023-04-18T16:25:35.548Z,33.20
2023-04-18T16:28:06.760Z,33.20
2023-04-18T16:30:36.682Z,33.20
2023-04-18T16:33:06.771Z,33.20
2023-04-18T16:35:37.136Z,33.10
2023-04-18T16:38:06.884Z,33.10
2023-04-18T16:40:37.224Z,33.00
2023-04-18T16:43:06.997Z,33.00
2023-04-18T16:45:36.815Z,33.00
2023-04-18T16:48:06.961Z,33.00
2023-04-18T16:50:36.951Z,33.00
2023-04-18T16:53:07.228Z,33.00
2023-04-18T16:55:37.570Z,33.00
2023-04-18T16:58:07.346Z,32.90
2023-04-18T17:00:38.831Z,32.90
2023-04-18T17:03:09.273Z,32.90
2023-04-18T17:05:40.737Z,32.90
2023-04-18T17:08:10.746Z,32.90
2023-04-18T17:10:40.485Z,32.80
2023-04-18T17:13:10.282Z,32.80
2023-04-18T17:15:39.873Z,32.80
2023-04-18T17:18:09.919Z,32.80
2023-04-18T17:20:39.578Z,32.70
2023-04-18T17:23:09.369Z,32.70
2023-04-18T17:25:39.054Z,32.70
2023-04-18T17:28:08.935Z,32.70
2023-04-18T17:30:42.930Z,32.70
2023-04-18T17:33:12.825Z,32.60
2023-04-18T17:35:43.231Z,32.60
2023-04-18T17:38:13.312Z,32.60
2023-04-18T17:40:42.977Z,32.60
2023-04-18T17:43:14.116Z,32.50
2023-04-18T17:45:44.163Z,32.60
2023-04-18T17:48:14.463Z,32.60
2023-04-18T17:50:44.411Z,32.50
2023-04-18T17:53:14.108Z,32.50
2023-04-18T17:55:44.119Z,32.50
2023-04-18T17:58:14.157Z,32.60
2023-04-18T18:00:44.476Z,32.50
2023-04-18T18:03:18.709Z,32.50
2023-04-18T18:05:50.414Z,32.40
2023-04-18T18:08:20.280Z,32.40
2023-04-18T18:10:50.185Z,32.40
2023-04-18T18:13:20.165Z,32.40
2023-04-18T18:15:49.869Z,32.40
2023-04-18T18:18:31.250Z,32.30
2023-04-18T18:21:01.235Z,32.40
2023-04-18T18:23:31.452Z,32.30
2023-04-18T18:26:02.202Z,32.30
2023-04-18T18:28:32.294Z,32.30
2023-04-18T18:31:02.612Z,32.20
2023-04-18T18:33:32.306Z,32.20
2023-04-18T18:36:03.153Z,32.20
2023-04-18T18:38:33.272Z,32.20
2023-04-18T18:41:04.007Z,32.20
2023-04-18T18:43:34.327Z,32.20
2023-04-18T18:46:04.574Z,32.10
2023-04-18T18:48:34.372Z,32.00
2023-04-18T18:51:04.389Z,32.00
2023-04-18T18:53:34.240Z,32.00
2023-04-18T18:56:04.396Z,31.90
2023-04-18T18:58:34.288Z,31.90
2023-04-18T19:01:05.336Z,31.90
2023-04-18T19:03:36.094Z,31.80
2023-04-18T19:06:08.522Z,31.80
2023-04-18T19:08:38.436Z,31.80
2023-04-18T19:11:08.274Z,31.80
2023-04-18T19:13:38.141Z,31.80
2023-04-18T19:16:08.072Z,31.80
2023-04-18T19:18:38.314Z,31.80
2023-04-18T19:21:08.119Z,31.80
2023-04-18T19:23:38.052Z,31.80
2023-04-18T19:26:08.250Z,31.70
2023-04-18T19:28:38.174Z,31.60
2023-04-18T19:31:08.196Z,31.70
2023-04-18T19:33:40.598Z,31.70
2023-04-18T19:36:11.428Z,31.70
2023-04-18T19:38:41.316Z,31.60
2023-04-18T19:41:11.099Z,31.60
2023-04-18T19:43:42.197Z,31.60
2023-04-18T19:46:12.387Z,31.60
2023-04-18T19:48:42.139Z,31.60
2023-04-18T19:51:12.175Z,31.60
2023-04-18T19:53:41.935Z,31.50
2023-04-18T19:56:13.862Z,31.50
2023-04-18T19:58:48.144Z,31.50
2023-04-18T20:01:20.918Z,31.50
2023-04-18T20:03:51.073Z,31.50
2023-04-18T20:06:21.624Z,31.50
2023-04-18T20:08:51.441Z,31.50
2023-04-18T20:11:21.391Z,31.40
2023-04-18T20:13:53.631Z,31.40
2023-04-18T20:16:25.068Z,31.40
2023-04-18T20:18:55.223Z,31.30
2023-04-18T20:21:24.927Z,31.30
2023-04-18T20:23:54.800Z,31.30
2023-04-18T20:26:24.638Z,31.30
2023-04-18T20:28:54.793Z,31.30
2023-04-18T20:31:24.519Z,31.20
2023-04-18T20:33:54.479Z,31.20
2023-04-18T20:36:25.920Z,31.30
2023-04-18T20:38:55.937Z,31.20
2023-04-18T20:41:28.352Z,31.20
2023-04-18T20:44:00.174Z,31.20
2023-04-18T20:46:30.150Z,31.10
2023-04-18T20:49:00.295Z,31.10
2023-04-18T20:51:31.274Z,31.10
2023-04-18T20:54:00.924Z,31.00
2023-04-18T20:56:31.177Z,31.00
2023-04-18T20:59:01.164Z,31.10
2023-04-18T21:01:31.119Z,31.00
2023-04-18T21:04:00.952Z,31.00
2023-04-18T21:06:31.021Z,30.90
2023-04-18T21:09:00.708Z,30.90
2023-04-18T21:11:30.498Z,30.90
2023-04-18T21:14:02.298Z,30.90
2023-04-18T21:16:33.175Z,30.90
2023-04-18T21:19:02.934Z,30.90
2023-04-18T21:21:33.174Z,30.90
2023-04-18T21:24:03.594Z,30.80
2023-04-18T21:26:33.414Z,30.70
2023-04-18T21:29:06.274Z,30.60
2023-04-18T21:31:37.016Z,30.50
2023-04-18T21:34:07.565Z,30.50
2023-04-18T21:36:38.509Z,30.50
2023-04-18T21:39:08.419Z,30.40
2023-04-18T21:41:38.417Z,30.40
2023-04-18T21:44:08.564Z,30.50
2023-04-18T21:46:38.454Z,30.50
2023-04-18T21:49:09.415Z,30.50
2023-04-18T21:51:39.456Z,30.50
2023-04-18T21:54:09.439Z,30.40
2023-04-18T21:56:39.302Z,30.30
2023-04-18T21:59:09.166Z,30.30
2023-04-18T22:01:39.834Z,30.20
2023-04-18T22:04:10.392Z,30.20
2023-04-18T22:06:40.621Z,30.10
2023-04-18T22:09:11.351Z,30.00
2023-04-18T22:11:41.339Z,29.90
2023-04-18T22:14:11.422Z,29.90
2023-04-18T22:16:41.428Z,29.90
2023-04-18T22:19:12.404Z,29.90
2023-04-18T22:21:42.451Z,30.00
2023-04-18T22:24:12.160Z,30.10
2023-04-18T22:26:42.469Z,30.10
2023-04-18T22:29:12.608Z,30.00
2023-04-18T22:31:43.860Z,29.90
2023-04-18T22:34:14.115Z,29.80
2023-04-18T22:36:45.353Z,29.70
2023-04-18T22:39:15.348Z,29.70
2023-04-18T22:41:45.049Z,29.60
2023-04-18T22:44:15.098Z,29.60
2023-04-18T22:46:45.882Z,29.60
2023-04-18T22:49:16.156Z,29.70
2023-04-18T22:51:47.786Z,29.70
2023-04-18T22:54:17.935Z,29.60
2023-04-18T22:56:47.608Z,29.60
2023-04-18T22:59:24.037Z,29.50
2023-04-18T23:01:54.193Z,29.60
2023-04-18T23:04:24.193Z,29.50
2023-04-18T23:34:19.295Z,29.60
2023-04-18T23:36:50.191Z,29.60
2023-04-18T23:39:19.967Z,29.50
2023-04-18T23:41:49.990Z,29.50
2023-04-18T23:44:19.781Z,29.50
2023-04-18T23:46:50.183Z,29.50
2023-04-18T23:49:19.975Z,29.60
2023-04-18T23:51:50.025Z,29.60
2023-04-18T23:54:19.681Z,29.60
2023-04-18T23:56:49.603Z,29.60
2023-04-18T23:59:19.610Z,29.60
